Time;durP1;ratioP1;P1;durP2;ratioP2;P2;SDS_P1;SDS_P2;PMS_P1;PMS_P2;Temp;Humidity;BMP_temperature;BMP_pressure;BME280_temperature;BME280_humidity;BME280_pressure;Samples;Min_cycle;Max_cycle;Signal;HPM_P1;HPM_P2
2023/07/06 00:01:01;;;;;;;23.63;22.02;;;12.40;99.10;;;;;;5069963;28;20025;-76
2023/07/06 00:03:27;;;;;;;23.08;21.60;;;12.30;99.30;;;;;;5074016;28;20522;-75
2023/07/06 00:05:54;;;;;;;23.70;21.92;;;12.40;99.60;;;;;;5070563;28;20120;-76
2023/07/06 00:08:20;;;;;;;22.65;21.25;;;12.40;99.50;;;;;;5080571;28;20134;-75
2023/07/06 00:10:49;;;;;;;23.58;21.90;;;12.40;99.30;;;;;;5067801;28;20042;-76
2023/07/06 00:13:16;;;;;;;22.67;20.98;;;12.30;99.70;;;;;;5072422;28;20035;-75
2023/07/06 00:15:42;;;;;;;22.17;20.88;;;12.20;99.50;;;;;;5082804;28;20029;-74
2023/07/06 00:18:09;;;;;;;22.40;21.00;;;12.20;99.90;;;;;;5070567;28;20159;-76
2023/07/06 00:20:38;;;;;;;20.90;19.40;;;12.10;99.90;;;;;;5073048;28;20040;-75
2023/07/06 00:23:08;;;;;;;21.83;20.43;;;12.10;99.90;;;;;;5076458;28;20105;-75
2023/07/06 00:25:34;;;;;;;21.90;20.40;;;12.10;99.90;;;;;;5079877;28;20045;-76
2023/07/06 00:28:04;;;;;;;19.30;18.02;;;12.10;99.90;;;;;;5051723;28;20047;-76
2023/07/06 00:33:13;;;;;;;18.33;16.92;;;12.10;99.90;;;;;;5070865;28;20036;-75
2023/07/06 00:35:40;;;;;;;21.27;19.98;;;12.00;99.90;;;;;;5072491;28;20028;-76
2023/07/06 00:38:11;;;;;;;19.52;18.10;;;11.90;99.90;;;;;;5070174;28;20040;-76
2023/07/06 00:40:41;;;;;;;19.23;17.60;;;11.80;99.40;;;;;;5073643;28;20032;-75
2023/07/06 00:43:15;;;;;;;19.27;17.97;;;11.70;99.30;;;;;;5076400;28;20024;-75
2023/07/06 00:45:45;;;;;;;20.90;19.42;;;11.70;98.90;;;;;;5074277;28;20032;-76
2023/07/06 00:48:36;;;;;;;21.88;20.58;;;11.70;99.80;;;;;;5068889;28;20028;-75
2023/07/06 00:51:10;;;;;;;20.42;18.98;;;11.60;99.60;;;;;;5069375;28;20131;-75
2023/07/06 00:53:41;;;;;;;20.70;19.35;;;11.60;99.90;;;;;;5070546;28;20514;-75
2023/07/06 00:56:10;;;;;;;21.98;20.52;;;11.70;99.90;;;;;;5069498;28;20119;-74
2023/07/06 00:58:42;;;;;;;19.23;17.55;;;11.60;99.80;;;;;;5071876;28;20055;-75
2023/07/06 01:01:10;;;;;;;20.05;18.65;;;11.50;99.40;;;;;;5053934;28;20032;-74
2023/07/06 01:03:43;;;;;;;20.63;19.25;;;11.50;99.60;;;;;;5065912;28;20029;-74
2023/07/06 01:06:15;;;;;;;20.88;19.38;;;11.50;99.90;;;;;;5071025;28;20071;-76
2023/07/06 01:08:41;;;;;;;21.00;19.60;;;11.50;99.90;;;;;;5066198;28;20028;-75
2023/07/06 01:11:09;;;;;;;20.48;18.95;;;11.60;99.90;;;;;;5072476;28;20027;-75
2023/07/06 01:13:36;;;;;;;20.23;18.52;;;11.50;99.90;;;;;;5074970;28;20056;-76
2023/07/06 01:16:19;;;;;;;21.05;19.38;;;11.40;99.70;;;;;;5069381;28;20055;-76
2023/07/06 01:18:50;;;;;;;20.17;18.70;;;11.40;99.70;;;;;;5068836;28;20102;-75
2023/07/06 01:21:53;;;;;;;17.35;16.15;;;11.40;99.40;;;;;;5069640;28;20039;-74
2023/07/06 01:24:43;;;;;;;16.60;15.38;;;11.30;98.90;;;;;;5061204;28;20116;-76
2023/07/06 01:27:36;;;;;;;15.57;14.52;;;11.20;98.50;;;;;;5077481;28;20045;-75
2023/07/06 01:30:56;;;;;;;19.00;17.10;;;11.20;99.00;;;;;;5074316;28;20032;-74
2023/07/06 01:33:43;;;;;;;17.15;15.95;;;11.20;99.90;;;;;;5050247;28;20075;-75
2023/07/06 01:36:21;;;;;;;16.95;15.45;;;11.30;99.90;;;;;;5049787;28;20037;-75
2023/07/06 01:38:48;;;;;;;18.27;16.92;;;11.30;99.90;;;;;;5070563;28;20040;-75
2023/07/06 01:41:24;;;;;;;18.80;17.33;;;11.30;99.90;;;;;;5072254;28;20539;-76
2023/07/06 01:43:49;;;;;;;17.15;15.75;;;11.20;99.90;;;;;;5076713;28;20079;-75
2023/07/06 01:46:16;;;;;;;19.25;17.55;;;11.10;99.90;;;;;;5054257;28;20731;-76
2023/07/06 01:48:43;;;;;;;19.55;18.08;;;11.00;99.90;;;;;;5074120;28;20043;-74
2023/07/06 01:51:24;;;;;;;17.70;16.33;;;11.00;99.90;;;;;;5073378;28;20027;-75
2023/07/06 01:53:50;;;;;;;22.73;15.27;;;11.00;99.90;;;;;;5074117;28;20028;-76
2023/07/06 01:56:57;;;;;;;16.02;14.93;;;11.00;99.90;;;;;;5076812;28;20461;-75
2023/07/06 01:59:25;;;;;;;15.18;13.98;;;10.90;99.90;;;;;;5067823;28;20849;-76
2023/07/06 02:01:59;;;;;;;15.13;13.68;;;10.90;99.90;;;;;;5076250;28;20108;-75
2023/07/06 02:04:30;;;;;;;14.73;13.75;;;10.80;99.90;;;;;;5075309;28;20027;-74
2023/07/06 02:07:00;;;;;;;14.98;13.82;;;10.80;99.90;;;;;;5072227;28;20032;-75
2023/07/06 02:09:26;;;;;;;14.57;13.13;;;10.70;99.90;;;;;;5091510;28;20035;-75
2023/07/06 02:11:52;;;;;;;15.07;13.82;;;10.70;99.90;;;;;;5073603;28;20043;-75
2023/07/06 02:14:19;;;;;;;15.40;14.27;;;10.60;99.90;;;;;;5072197;28;20802;-75
2023/07/06 02:16:45;;;;;;;15.25;14.15;;;10.70;99.90;;;;;;5072029;28;20560;-75
2023/07/06 02:19:11;;;;;;;15.82;14.52;;;10.60;99.90;;;;;;5074726;28;20041;-75
2023/07/06 02:21:38;;;;;;;15.27;14.18;;;10.60;99.60;;;;;;5055765;28;20090;-76
2023/07/06 02:24:07;;;;;;;15.38;14.38;;;10.60;99.20;;;;;;5072821;28;20690;-75
2023/07/06 02:26:32;;;;;;;15.20;13.98;;;10.50;99.60;;;;;;5071667;28;20082;-75
2023/07/06 02:28:58;;;;;;;14.98;13.98;;;10.50;99.90;;;;;;5075405;28;20697;-75
2023/07/06 02:31:23;;;;;;;14.13;13.18;;;10.40;99.90;;;;;;5079228;28;20024;-75
2023/07/06 02:33:49;;;;;;;15.00;13.80;;;10.30;99.30;;;;;;5079214;28;20115;-74
2023/07/06 02:36:16;;;;;;;14.13;12.95;;;10.30;98.80;;;;;;5079921;28;20043;-75
2023/07/06 02:38:42;;;;;;;13.68;12.68;;;10.20;98.50;;;;;;5077339;28;20119;-75
2023/07/06 02:41:08;;;;;;;14.27;13.25;;;10.20;98.40;;;;;;5074949;28;20095;-75
2023/07/06 02:43:33;;;;;;;14.65;13.25;;;10.20;98.60;;;;;;5079315;28;20028;-75
2023/07/06 02:46:00;;;;;;;14.57;13.27;;;10.20;98.70;;;;;;5084952;28;20542;-75
2023/07/06 02:48:26;;;;;;;14.38;13.38;;;10.20;98.60;;;;;;5073342;28;20458;-75
2023/07/06 02:50:52;;;;;;;14.63;13.43;;;10.10;98.60;;;;;;5072119;28;20067;-75
2023/07/06 02:53:18;;;;;;;14.32;13.32;;;10.10;99.40;;;;;;5057229;28;20036;-75
2023/07/06 02:55:48;;;;;;;13.77;12.82;;;10.20;99.70;;;;;;5079212;28;20074;-75
2023/07/06 02:58:14;;;;;;;14.05;12.93;;;10.20;99.80;;;;;;5074370;28;20047;-75
2023/07/06 03:00:40;;;;;;;13.82;12.85;;;10.10;99.80;;;;;;5073695;28;20040;-75
2023/07/06 03:03:08;;;;;;;14.77;13.68;;;10.10;99.90;;;;;;5073483;28;20047;-75
2023/07/06 03:05:36;;;;;;;13.90;12.85;;;10.10;99.90;;;;;;5075026;28;20066;-75
2023/07/06 03:08:03;;;;;;;13.80;12.80;;;10.10;99.90;;;;;;5081275;28;20032;-75
2023/07/06 03:10:30;;;;;;;13.70;12.70;;;10.00;99.90;;;;;;5079902;28;20525;-75
2023/07/06 03:12:57;;;;;;;13.30;12.20;;;10.00;99.90;;;;;;5077912;28;20855;-75
2023/07/06 03:15:23;;;;;;;13.70;12.60;;;10.00;99.90;;;;;;5088222;28;20047;-75
2023/07/06 03:17:51;;;;;;;13.95;12.85;;;10.00;99.90;;;;;;5072537;28;20120;-75
2023/07/06 03:20:22;;;;;;;14.50;13.40;;;10.00;99.90;;;;;;5079060;28;20108;-75
2023/07/06 03:22:51;;;;;;;13.68;12.48;;;10.00;99.90;;;;;;5073350;28;20509;-75
2023/07/06 03:25:18;;;;;;;13.13;12.13;;;9.90;99.90;;;;;;5073887;28;20025;-75
2023/07/06 03:27:46;;;;;;;14.15;13.18;;;9.90;99.90;;;;;;5074419;28;20114;-75
2023/07/06 03:30:14;;;;;;;14.35;13.15;;;9.90;99.90;;;;;;5070910;28;20029;-74
2023/07/06 03:32:40;;;;;;;14.18;12.88;;;10.00;99.90;;;;;;5074490;28;20035;-74
2023/07/06 03:35:09;;;;;;;14.23;12.88;;;10.00;99.90;;;;;;5073733;28;20024;-75
2023/07/06 03:37:39;;;;;;;14.52;13.15;;;9.90;99.90;;;;;;5071945;28;20036;-75
2023/07/06 03:40:10;;;;;;;14.50;13.15;;;9.90;99.90;;;;;;5075147;28;20490;-75
2023/07/06 03:42:39;;;;;;;14.07;12.80;;;9.90;99.90;;;;;;5055577;28;20398;-77
2023/07/06 03:45:07;;;;;;;14.23;13.02;;;9.80;99.90;;;;;;5055874;28;20512;-75
2023/07/06 03:47:33;;;;;;;14.05;12.88;;;9.90;99.90;;;;;;5075889;28;20087;-74
2023/07/06 03:49:59;;;;;;;15.55;13.70;;;9.90;99.90;;;;;;5070323;28;20077;-75
2023/07/06 03:52:27;;;;;;;14.93;13.70;;;10.00;99.90;;;;;;5060655;28;20082;-75
2023/07/06 03:54:53;;;;;;;14.48;13.50;;;10.00;99.90;;;;;;5071378;28;20039;-75
2023/07/06 03:57:19;;;;;;;15.55;14.13;;;10.10;99.90;;;;;;5057522;28;20059;-75
2023/07/06 03:59:45;;;;;;;15.15;14.05;;;10.30;99.90;;;;;;5076861;28;20483;-75
2023/07/06 04:02:12;;;;;;;16.77;14.77;;;10.50;99.90;;;;;;5055040;28;20028;-74
2023/07/06 04:04:39;;;;;;;16.85;13.82;;;10.70;99.90;;;;;;5070885;28;20379;-75
2023/07/06 04:07:07;;;;;;;57.08;15.93;;;10.80;99.90;;;;;;5072296;28;20090;-76
2023/07/06 04:09:33;;;;;;;55.35;16.02;;;10.80;99.90;;;;;;5074494;28;20067;-75
2023/07/06 04:12:00;;;;;;;148.00;19.10;;;10.90;99.90;;;;;;5087872;28;20115;-74
2023/07/06 04:14:26;;;;;;;141.00;19.55;;;10.90;99.90;;;;;;5074401;28;20390;-75
2023/07/06 04:16:54;;;;;;;135.68;19.05;;;10.90;99.90;;;;;;5071655;28;20040;-74
2023/07/06 04:19:20;;;;;;;86.95;17.48;;;10.90;99.90;;;;;;5054568;28;20387;-75
2023/07/06 04:21:45;;;;;;;170.77;21.42;;;11.00;99.90;;;;;;5072287;28;20162;-76
2023/07/06 04:24:11;;;;;;;132.65;19.48;;;10.90;99.90;;;;;;5075079;28;20044;-75
2023/07/06 04:26:38;;;;;;;59.10;16.00;;;11.00;99.90;;;;;;5075697;28;20495;-75
2023/07/06 04:29:09;;;;;;;28.55;15.32;;;11.10;99.90;;;;;;5071135;28;20282;-75
2023/07/06 04:31:38;;;;;;;111.57;19.55;;;11.30;99.90;;;;;;5076829;28;20028;-75
2023/07/06 04:34:04;;;;;;;50.28;16.85;;;11.30;99.90;;;;;;5087635;28;20041;-75
2023/07/06 04:36:31;;;;;;;24.60;16.00;;;11.40;99.90;;;;;;5067893;28;20024;-75
2023/07/06 04:38:59;;;;;;;20.80;17.52;;;11.50;99.90;;;;;;5078244;28;20466;-75
2023/07/06 04:41:25;;;;;;;109.93;19.65;;;11.60;99.90;;;;;;5053577;28;20055;-76
2023/07/06 04:43:52;;;;;;;108.43;19.55;;;11.60;99.90;;;;;;5075942;28;20025;-75
2023/07/06 04:46:20;;;;;;;91.75;19.15;;;11.70;99.90;;;;;;5073292;28;20028;-75
2023/07/06 04:48:49;;;;;;;109.07;19.00;;;11.70;99.90;;;;;;5051568;28;20402;-75
2023/07/06 04:51:17;;;;;;;89.65;19.27;;;11.80;99.90;;;;;;5071288;28;20025;-75
2023/07/06 04:53:43;;;;;;;97.97;18.42;;;11.90;99.90;;;;;;5054133;28;20025;-76
2023/07/06 04:56:09;;;;;;;81.57;17.95;;;11.80;99.90;;;;;;5070095;28;20080;-75
2023/07/06 04:58:35;;;;;;;81.15;19.67;;;11.80;99.90;;;;;;5070467;28;20032;-75
2023/07/06 05:01:06;;;;;;;101.25;19.85;;;12.00;99.90;;;;;;5072231;28;20043;-75
2023/07/06 05:03:32;;;;;;;86.13;21.75;;;12.00;99.90;;;;;;5069387;28;20487;-74
2023/07/06 05:06:05;;;;;;;72.22;19.52;;;11.90;99.90;;;;;;5068097;28;20058;-75
2023/07/06 05:08:32;;;;;;;88.35;20.38;;;12.00;99.90;;;;;;5072491;28;20039;-75
2023/07/06 05:10:57;;;;;;;58.20;18.75;;;12.10;99.90;;;;;;5071090;28;20107;-74
2023/07/06 05:13:25;;;;;;;41.92;18.75;;;12.10;99.90;;;;;;5072833;28;20618;-76
2023/07/06 05:15:52;;;;;;;20.42;18.48;;;12.20;99.90;;;;;;5073774;28;20032;-76
2023/07/06 05:18:19;;;;;;;22.83;17.85;;;12.40;99.90;;;;;;5085239;28;20028;-74
2023/07/06 05:20:48;;;;;;;45.08;17.77;;;12.50;99.90;;;;;;5072189;28;20034;-74
2023/07/06 05:23:15;;;;;;;17.83;16.25;;;12.50;99.90;;;;;;5071620;28;20036;-74
2023/07/06 05:25:41;;;;;;;20.45;18.60;;;12.50;99.90;;;;;;5071691;28;20046;-74
2023/07/06 05:28:10;;;;;;;20.65;18.42;;;12.60;99.90;;;;;;5068292;28;20067;-73
2023/07/06 05:30:37;;;;;;;18.70;17.42;;;12.70;99.90;;;;;;5074074;28;20086;-74
2023/07/06 05:33:03;;;;;;;18.25;16.67;;;12.60;99.90;;;;;;5049934;28;20437;-73
2023/07/06 05:35:29;;;;;;;18.30;16.98;;;12.60;99.90;;;;;;5067653;28;20037;-72
2023/07/06 05:37:55;;;;;;;17.48;16.27;;;12.70;99.90;;;;;;5067141;28;20107;-74
2023/07/06 05:40:21;;;;;;;20.38;18.65;;;12.90;99.90;;;;;;5075424;28;20036;-72
2023/07/06 05:42:47;;;;;;;19.92;18.52;;;13.00;99.90;;;;;;5075381;28;20029;-74
2023/07/06 05:45:13;;;;;;;20.52;18.73;;;13.10;99.90;;;;;;5076022;28;20102;-74
2023/07/06 05:47:39;;;;;;;18.70;17.27;;;13.20;99.90;;;;;;5071005;28;20773;-73
2023/07/06 05:50:06;;;;;;;19.15;17.55;;;13.30;99.90;;;;;;5066885;28;20043;-72
2023/07/06 05:52:31;;;;;;;19.58;17.98;;;13.50;99.70;;;;;;5057111;28;20491;-72
2023/07/06 05:54:57;;;;;;;20.08;18.27;;;13.70;99.00;;;;;;5070753;28;20036;-73
2023/07/06 05:57:22;;;;;;;20.65;19.05;;;13.80;98.90;;;;;;5071364;28;20394;-73
2023/07/06 05:59:48;;;;;;;20.52;18.85;;;14.00;98.60;;;;;;5075008;28;20772;-81
2023/07/06 06:02:19;;;;;;;21.83;19.77;;;14.00;98.80;;;;;;5072286;28;20558;-71
2023/07/06 06:04:47;;;;;;;20.92;19.23;;;14.10;98.60;;;;;;5073089;28;20106;-75
2023/07/06 06:07:13;;;;;;;22.58;20.25;;;14.30;98.60;;;;;;5068415;28;20033;-75
2023/07/06 06:09:39;;;;;;;26.92;20.08;;;14.40;99.00;;;;;;5072643;28;20111;-77
2023/07/06 06:12:05;;;;;;;22.88;20.60;;;14.50;98.20;;;;;;5072707;28;20116;-77
2023/07/06 06:14:32;;;;;;;31.45;21.67;;;14.60;97.30;;;;;;5074794;28;20047;-77
2023/07/06 06:16:58;;;;;;;30.30;20.52;;;14.70;97.50;;;;;;5072153;28;20044;-76
2023/07/06 06:19:27;;;;;;;31.20;20.20;;;14.80;95.70;;;;;;5077065;28;20043;-76
2023/07/06 06:21:53;;;;;;;31.65;21.15;;;15.00;95.80;;;;;;5078647;28;20040;-78
2023/07/06 06:24:19;;;;;;;27.08;20.90;;;15.00;96.40;;;;;;5073957;28;20151;-76
2023/07/06 06:26:45;;;;;;;27.35;21.48;;;15.20;96.50;;;;;;5077766;28;20075;-77
2023/07/06 06:29:11;;;;;;;27.00;20.23;;;15.40;95.10;;;;;;5064235;28;20056;-75
2023/07/06 06:31:42;;;;;;;29.08;21.73;;;15.50;95.10;;;;;;5072537;28;20102;-76
2023/07/06 06:34:08;;;;;;;23.30;21.33;;;15.30;96.30;;;;;;5077966;28;20070;-76
2023/07/06 06:36:34;;;;;;;31.42;22.25;;;15.60;95.80;;;;;;5071966;28;20027;-76
2023/07/06 06:39:00;;;;;;;19.40;17.38;;;15.80;95.30;;;;;;5075076;28;20028;-76
2023/07/06 06:41:25;;;;;;;20.05;18.33;;;15.80;94.00;;;;;;5077769;28;20036;-77
2023/07/06 06:43:51;;;;;;;20.77;18.00;;;15.90;94.10;;;;;;5057211;28;20542;-77
2023/07/06 06:46:17;;;;;;;22.90;20.23;;;16.00;94.20;;;;;;5074901;28;20032;-77
2023/07/06 06:48:43;;;;;;;21.13;18.92;;;16.00;95.10;;;;;;5075471;28;20482;-76
2023/07/06 06:51:10;;;;;;;19.70;17.65;;;16.10;94.70;;;;;;5068441;28;20115;-76
2023/07/06 06:53:40;;;;;;;21.30;17.95;;;16.40;94.20;;;;;;5072473;28;20017;-76
2023/07/06 06:56:07;;;;;;;20.90;18.98;;;16.50;93.50;;;;;;5058037;28;20028;-76
2023/07/06 06:58:35;;;;;;;21.73;19.95;;;16.50;93.20;;;;;;5075094;28;20044;-79
2023/07/06 07:01:02;;;;;;;20.35;18.70;;;16.60;94.20;;;;;;5079166;28;20037;-76
2023/07/06 07:03:28;;;;;;;22.48;20.70;;;16.80;93.60;;;;;;5074888;28;20024;-76
2023/07/06 07:06:01;;;;;;;22.38;20.45;;;16.80;92.50;;;;;;5076831;28;20078;-76
2023/07/06 07:08:27;;;;;;;22.85;20.75;;;16.60;93.10;;;;;;5075070;28;20043;-77
2023/07/06 07:10:57;;;;;;;17.90;16.38;;;16.70;92.50;;;;;;5072172;28;20025;-77
2023/07/06 07:13:27;;;;;;;22.35;20.77;;;16.70;92.00;;;;;;5074220;28;20024;-77
2023/07/06 07:15:53;;;;;;;18.92;17.38;;;16.70;92.70;;;;;;5073415;28;20040;-76
2023/07/06 07:18:21;;;;;;;21.23;19.60;;;17.00;90.90;;;;;;5053868;28;20059;-77
2023/07/06 07:20:52;;;;;;;19.88;18.58;;;17.40;90.70;;;;;;5059017;28;20044;-78
2023/07/06 07:23:23;;;;;;;20.23;18.77;;;17.70;88.20;;;;;;5069535;28;20064;-76
2023/07/06 07:25:50;;;;;;;18.75;17.45;;;17.70;83.60;;;;;;5074402;28;20609;-76
2023/07/06 07:28:18;;;;;;;20.13;18.83;;;17.50;82.20;;;;;;5056738;28;20029;-77
2023/07/06 07:30:57;;;;;;;22.88;21.30;;;17.60;82.40;;;;;;5072535;28;20036;-76
2023/07/06 07:33:29;;;;;;;21.48;19.83;;;17.80;84.70;;;;;;5081151;28;20500;-76
2023/07/06 07:36:00;;;;;;;19.23;17.92;;;17.90;84.80;;;;;;5075373;28;20037;-77
2023/07/06 07:38:26;;;;;;;20.17;18.60;;;18.10;81.90;;;;;;5071448;28;20060;-75
2023/07/06 07:40:57;;;;;;;20.77;19.27;;;18.00;81.80;;;;;;5073459;28;20463;-76
2023/07/06 07:43:27;;;;;;;19.98;18.65;;;18.10;82.00;;;;;;5070985;28;20043;-75
2023/07/06 07:45:55;;;;;;;21.67;20.23;;;17.90;79.10;;;;;;5096746;28;20044;-76
2023/07/06 07:48:23;;;;;;;20.67;19.27;;;18.00;79.90;;;;;;5070146;28;20036;-76
2023/07/06 07:50:50;;;;;;;23.45;21.88;;;18.00;80.10;;;;;;5090233;28;20036;-75
2023/07/06 07:53:18;;;;;;;23.25;21.58;;;18.30;79.40;;;;;;5053263;28;20038;-75
2023/07/06 07:55:44;;;;;;;22.50;21.08;;;18.30;79.70;;;;;;5068648;28;20067;-75
2023/07/06 07:58:10;;;;;;;23.75;22.17;;;18.40;79.10;;;;;;5051063;28;20028;-75
2023/07/06 08:00:36;;;;;;;19.75;18.27;;;18.70;79.30;;;;;;5074135;28;20043;-75
2023/07/06 08:03:05;;;;;;;18.98;17.73;;;18.90;73.90;;;;;;5070392;28;20032;-75
2023/07/06 08:05:31;;;;;;;18.63;17.00;;;19.10;75.00;;;;;;5076717;28;20029;-75
2023/07/06 08:07:57;;;;;;;21.42;19.30;;;19.30;72.20;;;;;;5072610;28;20400;-76
2023/07/06 08:10:23;;;;;;;17.38;16.17;;;19.30;71.60;;;;;;5070937;28;20039;-75
2023/07/06 08:12:49;;;;;;;20.10;18.20;;;19.60;71.30;;;;;;5074796;28;20391;-75
2023/07/06 08:15:15;;;;;;;17.60;16.30;;;19.50;70.40;;;;;;5074977;28;20032;-75
2023/07/06 08:17:41;;;;;;;18.13;16.73;;;19.60;72.00;;;;;;5074648;28;20050;-74
2023/07/06 08:20:10;;;;;;;16.77;15.68;;;19.70;73.50;;;;;;5071931;28;20028;-76
2023/07/06 08:22:36;;;;;;;19.00;17.80;;;19.90;68.90;;;;;;5090715;28;21591;-75
2023/07/06 08:25:03;;;;;;;17.98;16.75;;;19.70;72.90;;;;;;5077537;28;20037;-75
2023/07/06 08:27:30;;;;;;;22.65;21.15;;;20.20;70.50;;;;;;5064343;28;20122;-75
2023/07/06 08:29:55;;;;;;;25.63;23.92;;;20.60;64.90;;;;;;5074757;28;20037;-75
2023/07/06 08:32:22;;;;;;;22.90;21.60;;;20.70;64.70;;;;;;5077083;28;20074;-73
2023/07/06 08:34:47;;;;;;;19.13;17.92;;;21.00;62.80;;;;;;5077695;28;20044;-73
2023/07/06 08:37:18;;;;;;;18.80;17.60;;;20.70;62.80;;;;;;5065856;28;20089;-73
2023/07/06 08:39:44;;;;;;;16.33;15.23;;;20.90;61.90;;;;;;5078669;28;20032;-73
2023/07/06 08:42:14;;;;;;;18.73;17.42;;;20.80;60.70;;;;;;5074118;28;20410;-72
2023/07/06 08:44:39;;;;;;;18.00;16.92;;;20.90;59.80;;;;;;5075022;28;20807;-73
2023/07/06 08:47:07;;;;;;;18.15;17.15;;;20.90;60.40;;;;;;5081435;28;20052;-74
2023/07/06 08:49:36;;;;;;;14.98;13.98;;;21.20;59.60;;;;;;5075107;28;20470;-73
2023/07/06 08:52:05;;;;;;;18.23;17.13;;;21.40;57.90;;;;;;5076104;28;20052;-73
2023/07/06 08:54:35;;;;;;;17.33;16.23;;;22.20;60.70;;;;;;5077003;28;20028;-73
2023/07/06 08:57:09;;;;;;;17.80;16.55;;;22.40;55.50;;;;;;5072786;28;20089;-73
2023/07/06 08:59:41;;;;;;;18.23;17.13;;;23.10;55.20;;;;;;5058924;28;20047;-74
2023/07/06 09:02:09;;;;;;;18.95;17.70;;;23.00;53.30;;;;;;5075890;28;20063;-73
2023/07/06 09:04:37;;;;;;;18.67;17.30;;;23.10;55.40;;;;;;5079791;28;20020;-73
2023/07/06 09:07:02;;;;;;;53.50;51.28;;;23.20;51.90;;;;;;5076555;28;20036;-73
2023/07/06 09:09:28;;;;;;;71.30;68.55;;;23.30;50.80;;;;;;5075705;28;20039;-71
2023/07/06 09:11:57;;;;;;;71.47;68.57;;;23.80;49.40;;;;;;5078359;28;20075;-73
2023/07/06 09:14:28;;;;;;;90.70;87.22;;;23.90;49.00;;;;;;5057559;28;20115;-74
2023/07/06 09:16:55;;;;;;;52.22;49.92;;;24.10;47.10;;;;;;5061126;28;20339;-73
2023/07/06 09:19:23;;;;;;;81.13;77.78;;;24.10;50.80;;;;;;5073766;28;20027;-73
2023/07/06 09:21:54;;;;;;;182.18;175.63;;;24.20;47.10;;;;;;5080367;28;20036;-73
2023/07/06 09:24:27;;;;;;;178.07;171.60;;;24.70;45.20;;;;;;5079340;28;20056;-74
2023/07/06 09:26:54;;;;;;;297.77;286.65;;;23.60;46.00;;;;;;5078406;28;20039;-74
2023/07/06 09:29:25;;;;;;;207.95;200.30;;;22.60;47.80;;;;;;5078568;28;20039;-73
2023/07/06 09:32:07;;;;;;;;;;;22.70;47.40;;;;;;5069898;28;20052;-73
2023/07/06 09:34:33;;;;;;;112.93;108.15;;;22.10;50.30;;;;;;5072878;28;19919;-73
2023/07/06 09:37:01;;;;;;;139.75;134.15;;;22.30;50.90;;;;;;5073796;28;20029;-73
2023/07/06 09:39:27;;;;;;;145.95;140.60;;;23.10;47.00;;;;;;5086148;28;20033;-73
2023/07/06 09:41:53;;;;;;;291.23;280.30;;;23.80;45.00;;;;;;5072679;28;20044;-73
2023/07/06 09:44:32;;;;;;;347.15;333.67;;;23.80;43.70;;;;;;5068649;28;20021;-75
2023/07/06 09:46:59;;;;;;;298.58;287.45;;;23.30;45.70;;;;;;5075500;28;20055;-75
2023/07/06 09:49:34;;;;;;;369.58;355.38;;;22.70;46.30;;;;;;5079753;28;20115;-75
2023/07/06 09:52:05;;;;;;;381.88;366.75;;;22.30;45.50;;;;;;5076058;28;20035;-75
2023/07/06 09:54:46;;;;;;;357.77;343.83;;;22.10;44.70;;;;;;5080911;28;20028;-75
2023/07/06 09:57:17;;;;;;;309.90;297.60;;;22.70;49.30;;;;;;5070982;28;20030;-75
2023/07/06 09:59:48;;;;;;;346.33;333.15;;;23.50;46.10;;;;;;5073777;28;20129;-76
2023/07/06 10:02:24;;;;;;;473.50;452.63;;;23.90;44.00;;;;;;5073916;28;20375;-76
2023/07/06 10:05:21;;;;;;;411.70;394.27;;;24.50;39.40;;;;;;5069494;28;20032;-76
2023/07/06 10:07:53;;;;;;;415.80;399.13;;;24.00;44.10;;;;;;5062811;28;20086;-75
2023/07/06 10:10:22;;;;;;;380.00;365.02;;;23.80;43.10;;;;;;5073920;28;20107;-76
2023/07/06 10:12:47;;;;;;;430.88;410.70;;;23.80;39.70;;;;;;5071761;28;20028;-76
2023/07/06 10:15:22;;;;;;;1999.90;999.90;;;22.80;42.00;;;;;;5077090;28;20102;-76
2023/07/06 10:18:03;;;;;;;394.20;377.00;;;23.50;40.20;;;;;;5072248;28;20032;-76
2023/07/06 10:20:53;;;;;;;454.90;434.38;;;23.60;42.00;;;;;;5073993;28;20122;-77
2023/07/06 10:23:19;;;;;;;1999.90;999.90;;;23.30;42.80;;;;;;5076466;28;20153;-74
2023/07/06 10:26:07;;;;;;;1999.90;999.90;;;23.60;39.00;;;;;;5076817;28;20431;-75
2023/07/06 10:28:46;;;;;;;1999.90;999.90;;;23.80;39.20;;;;;;5074498;28;20024;-75
2023/07/06 10:31:16;;;;;;;736.53;474.80;;;23.90;37.20;;;;;;5072981;28;20113;-75
2023/07/06 10:34:27;;;;;;;1999.90;999.90;;;24.10;40.90;;;;;;5072787;28;20040;-76
2023/07/06 10:36:52;;;;;;;1999.90;999.90;;;24.20;40.50;;;;;;5057858;28;20044;-74
2023/07/06 10:39:24;;;;;;;1999.90;999.90;;;24.60;38.00;;;;;;5071786;28;20032;-74
2023/07/06 10:42:09;;;;;;;1999.90;999.90;;;24.30;37.40;;;;;;5072237;28;20703;-74
2023/07/06 10:44:43;;;;;;;1999.90;999.90;;;23.90;35.80;;;;;;5070111;28;20124;-74
2023/07/06 10:47:37;;;;;;;1999.90;999.90;;;23.70;37.20;;;;;;5076980;28;20032;-74
2023/07/06 10:50:08;;;;;;;1999.90;999.90;;;23.40;36.90;;;;;;5070006;28;20036;-73
2023/07/06 10:52:40;;;;;;;1999.90;999.90;;;23.40;36.80;;;;;;5069540;28;20024;-72
2023/07/06 10:55:18;;;;;;;275.17;261.83;;;23.40;40.10;;;;;;5054307;28;20206;-72
2023/07/06 10:57:53;;;;;;;1999.90;999.90;;;23.90;43.10;;;;;;5075172;28;20059;-72
2023/07/06 11:00:40;;;;;;;1999.90;999.90;;;24.80;40.10;;;;;;5076397;28;20049;-74
2023/07/06 11:03:06;;;;;;;1999.90;999.90;;;25.80;35.30;;;;;;5079547;28;20567;-74
2023/07/06 11:05:50;;;;;;;1999.90;999.90;;;25.20;36.00;;;;;;5078872;28;20165;-74
2023/07/06 11:08:36;;;;;;;1999.90;999.90;;;25.00;35.40;;;;;;5079499;28;20044;-74
2023/07/06 11:11:02;;;;;;;1999.90;999.90;;;24.30;34.50;;;;;;5075967;28;20368;-76
2023/07/06 11:13:28;;;;;;;1999.90;999.90;;;23.60;38.70;;;;;;5080029;28;20024;-75
2023/07/06 11:15:57;;;;;;;1999.90;999.90;;;23.50;34.50;;;;;;5078898;28;20531;-75
2023/07/06 11:18:44;;;;;;;1999.90;999.90;;;22.80;37.90;;;;;;5075708;28;20394;-76
2023/07/06 11:21:36;;;;;;;1999.90;999.90;;;23.60;37.60;;;;;;5077761;28;20028;-75
2023/07/06 11:24:07;;;;;;;1999.90;999.90;;;25.10;32.40;;;;;;5074374;28;20052;-75
2023/07/06 11:26:48;;;;;;;1999.90;999.90;;;26.70;29.30;;;;;;5079147;28;20041;-76
2023/07/06 11:29:16;;;;;;;1999.90;999.90;;;27.10;30.90;;;;;;5081646;28;20089;-76
2023/07/06 11:31:54;;;;;;;1999.90;999.90;;;28.50;29.90;;;;;;5077967;28;20052;-76
2023/07/06 11:34:31;;;;;;;1999.90;999.90;;;27.90;27.90;;;;;;5078693;28;20024;-75
2023/07/06 11:36:57;;;;;;;1999.90;999.90;;;27.20;28.60;;;;;;5075124;28;20066;-78
2023/07/06 11:39:28;;;;;;;1999.90;999.90;;;27.30;29.50;;;;;;5060974;28;20059;-76
2023/07/06 11:41:58;;;;;;;1999.90;999.90;;;26.10;33.10;;;;;;5072203;28;20112;-75
2023/07/06 11:44:45;;;;;;;1999.90;999.90;;;25.30;31.50;;;;;;5057201;28;20360;-75
2023/07/06 11:47:37;;;;;;;1999.90;999.90;;;24.20;34.10;;;;;;5084351;28;20039;-76
2023/07/06 11:50:09;;;;;;;1999.90;999.90;;;26.30;32.40;;;;;;5075376;28;20029;-76
2023/07/06 11:52:39;;;;;;;1999.90;999.90;;;28.40;31.50;;;;;;5078404;28;20035;-76
2023/07/06 11:55:31;;;;;;;1999.90;999.90;;;29.80;27.80;;;;;;5061015;28;20016;-76
2023/07/06 11:58:18;;;;;;;1999.90;999.90;;;29.50;27.70;;;;;;5077550;28;20036;-77
2023/07/06 12:00:50;;;;;;;1999.90;999.90;;;30.20;28.80;;;;;;5080959;28;20024;-76
2023/07/06 12:03:25;;;;;;;1999.90;999.90;;;29.40;23.90;;;;;;5077873;28;20124;-76
2023/07/06 12:05:55;;;;;;;1999.90;999.90;;;28.20;24.00;;;;;;5073164;28;20033;-75
2023/07/06 12:08:29;;;;;;;;;;;26.70;26.00;;;;;;5073336;28;20075;-76
2023/07/06 12:11:23;;;;;;;1999.90;999.90;;;26.30;26.90;;;;;;5069426;28;20382;-75
2023/07/06 12:13:52;;;;;;;1999.90;999.90;;;26.40;27.20;;;;;;5068953;28;20060;-76
2023/07/06 12:16:39;;;;;;;1999.90;999.90;;;27.20;32.00;;;;;;5071121;28;20028;-74
2023/07/06 12:19:13;;;;;;;1999.90;999.90;;;28.20;31.20;;;;;;5069573;28;20520;-75
2023/07/06 12:21:51;;;;;;;1999.90;999.90;;;27.10;28.40;;;;;;5074254;28;20063;-76
2023/07/06 12:24:20;;;;;;;1999.90;999.90;;;26.60;27.60;;;;;;5056821;28;20040;-79
2023/07/06 12:27:15;;;;;;;1999.90;999.90;;;26.30;30.00;;;;;;5050455;28;20029;-79
2023/07/06 12:29:45;;;;;;;1999.90;999.90;;;25.80;27.50;;;;;;5054214;28;20100;-80
2023/07/06 12:32:21;;;;;;;1999.90;999.90;;;25.60;30.60;;;;;;5068686;28;20028;-80
2023/07/06 12:34:52;;;;;;;1999.90;999.90;;;27.50;29.20;;;;;;5067805;28;20027;-80
2023/07/06 12:37:20;;;;;;;1999.90;999.90;;;28.90;25.20;;;;;;5073777;28;20111;-80
2023/07/06 12:39:47;;;;;;;1999.90;999.90;;;30.10;22.20;;;;;;5070460;28;20028;-80